This is the latest recevied weather packets stored in our database for station/object SP4FDH-13. If no packets are shown the sender has not sent any weather packets the latest 10 day(s).
| Time | Temp. | Humidity | Pressure | Rain* | Wind** | Luminosity | Snow |
|---|---|---|---|---|---|---|---|
| 1777785241 | 20° C | 45% | 1014.9 hPa | - | - | - | - |
| 1777784663 | 20° C | 46% | 1014.9 hPa | - | - | - | - |
| 1777784086 | 19.44° C | 48% | 1014.9 hPa | - | - | - | - |
| 1777782931 | 17.22° C | 57% | 1015.2 hPa | - | - | - | - |
| 1777782353 | 16.11° C | 63% | 1015.3 hPa | - | - | - | - |
| 1777781776 | 15.56° C | 66% | 1015.2 hPa | - | - | - | - |
| 1777781199 | 14.44° C | 70% | 1015.4 hPa | - | - | - | - |
| 1777780622 | 13.89° C | 73% | 1015.3 hPa | - | - | - | - |
| 1777780047 | 13.89° C | 72% | 1015.3 hPa | - | - | - | - |
| 1777779471 | 13.33° C | 72% | 1015.3 hPa | - | - | - | - |
| 1777778895 | 13.89° C | 70% | 1015.3 hPa | - | - | - | - |
| 1777778320 | 13.89° C | 67% | 1015.3 hPa | - | - | - | - |
| 1777777745 | 15° C | 62% | 1015.1 hPa | - | - | - | - |
| 1777777168 | 15.56° C | 60% | 1014.9 hPa | - | - | - | - |
| 1777776591 | 14.44° C | 65% | 1015.1 hPa | - | - | - | - |
| 1777776015 | 13.33° C | 70% | 1015.3 hPa | - | - | - | - |
| 1777775439 | 13.89° C | 69% | 1015.3 hPa | - | - | - | - |
| 1777774863 | 14.44° C | 65% | 1015.3 hPa | - | - | - | - |
| 1777774288 | 14.44° C | 63% | 1015.4 hPa | - | - | - | - |
| 1777773712 | 15° C | 61% | 1015.3 hPa | - | - | - | - |
| 1777773138 | 15.56° C | 56% | 1015.3 hPa | - | - | - | - |
| 1777772562 | 16.67° C | 53% | 1015.3 hPa | - | - | - | - |
| 1777771986 | 16.67° C | 52% | 1015.3 hPa | - | - | - | - |
| 1777771410 | 16.67° C | 52% | 1015.2 hPa | - | - | - | - |
| 1777770834 | 16.67° C | 53% | 1015.3 hPa | - | - | - | - |
* Rain since midnight (hover to see other rain measurements)
** Current wind speed in m/s (hover to see current wind gust speed)